KADC

Details ICAO KADC
Name WADENA MUNI
Region United States
Timezone America/Chicago (UTC-6.0)
Plans Departing 0
Arriving 2
Stats Elevation 1,369 ft / 417 m (AMSL)
Location 46.450269° -95.210955°
Runways 1
Magnetic Variation 1.667° E
Sunrise 2017-12-14 13:58:35 UTC / 2017-12-14 07:58:35 Local
Sunset 2017-12-14 22:35:31 UTC / 2017-12-14 16:35:31 Local
Advertisement - Login to hide

Runways

ID Width Length Bearing (true) Bearing (mag) Surface Threshold Offset Overrun Length
16 75 ft / 23 m 4,006 ft / 1,221 m 163.12° 161.45° Asphalt 0 ft / 0 m 0 ft / 0 m
34 75 ft / 23 m 4,006 ft / 1,221 m 343.12° 341.45° Asphalt 0 ft / 0 m 0 ft / 0 m

Map

Weather


0- 5 10 15 20 25 30 35+ Temperature / ° C

Clouds and Precipitation
Forecast for 2017-12-15 00:00 UTC. Updated 2 minutes ago

Ground ~20,000 ft ~40,000 ft Winds

METAR

KADC 142115Z AUTO 30013G21KT 10SM UP OVC020 M07/M11 A2999 RMK AO2

TAF

Not found

Frequencies

Recorded 128.32 MHz AWOS 3
Unicom 122.80 MHz CTAF/UNICOM
Warning: Do not use this data for real-world aviation or navigation. No guarantee of current accuracy is given.